Terminal Aerodrome Forecast
Issued by NWS

Home | Current Version | Previous Version | Text Only | Print | Product List | Glossary On
Versions: 1 2 3 4 5 6 7 8 9 10 11 12 13 14 15 16 17 18 19 20 21
399
FTUS41 KCAR 231228 AAA
TAFPQI
TAF AMD
KPQI 231228Z 2312/2412 31008KT P6SM BKN015 OVC030
     FM231700 25005KT P6SM BKN030
     FM232000 21007KT P6SM SCT040 BKN200
     FM240500 30008KT P6SM BKN025
     FM240800 31010KT P6SM BKN050=

USA.gov is the U.S. government's official web portal to all federal, state and local government web resources and services.